sensor_id;sensor_type;location;lat;lon;timestamp;P1;durP1;ratioP1;P2;durP2;ratioP2
23044;SDS011;11690;51.716;23.066;2023-09-12T00:02:16;18.25;;;8.85;;
23044;SDS011;11690;51.716;23.066;2023-09-12T00:04:43;16.42;;;8.73;;
23044;SDS011;11690;51.716;23.066;2023-09-12T00:07:11;22.40;;;11.73;;
23044;SDS011;11690;51.716;23.066;2023-09-12T00:09:38;20.52;;;10.65;;
23044;SDS011;11690;51.716;23.066;2023-09-12T00:12:05;23.45;;;10.70;;
23044;SDS011;11690;51.716;23.066;2023-09-12T00:14:33;26.65;;;14.48;;
23044;SDS011;11690;51.716;23.066;2023-09-12T00:17:00;25.42;;;13.25;;
23044;SDS011;11690;51.716;23.066;2023-09-12T00:19:28;39.97;;;17.90;;
23044;SDS011;11690;51.716;23.066;2023-09-12T00:21:55;37.67;;;19.48;;
23044;SDS011;11690;51.716;23.066;2023-09-12T00:24:22;33.88;;;19.75;;
23044;SDS011;11690;51.716;23.066;2023-09-12T00:26:49;32.00;;;16.02;;
23044;SDS011;11690;51.716;23.066;2023-09-12T00:29:17;27.80;;;15.15;;
23044;SDS011;11690;51.716;23.066;2023-09-12T00:31:45;26.63;;;12.38;;
23044;SDS011;11690;51.716;23.066;2023-09-12T00:34:16;23.20;;;11.38;;
23044;SDS011;11690;51.716;23.066;2023-09-12T00:36:44;23.73;;;11.18;;
23044;SDS011;11690;51.716;23.066;2023-09-12T00:39:11;17.02;;;10.05;;
23044;SDS011;11690;51.716;23.066;2023-09-12T00:41:38;22.40;;;10.88;;
23044;SDS011;11690;51.716;23.066;2023-09-12T00:44:06;18.77;;;9.45;;
23044;SDS011;11690;51.716;23.066;2023-09-12T00:46:33;16.80;;;10.48;;
23044;SDS011;11690;51.716;23.066;2023-09-12T00:49:01;14.98;;;8.93;;
23044;SDS011;11690;51.716;23.066;2023-09-12T00:51:29;15.35;;;8.93;;
23044;SDS011;11690;51.716;23.066;2023-09-12T00:53:58;17.13;;;9.90;;
23044;SDS011;11690;51.716;23.066;2023-09-12T00:56:25;18.17;;;9.38;;
23044;SDS011;11690;51.716;23.066;2023-09-12T00:58:53;18.92;;;9.15;;
23044;SDS011;11690;51.716;23.066;2023-09-12T01:01:21;17.98;;;10.63;;
23044;SDS011;11690;51.716;23.066;2023-09-12T01:03:48;16.38;;;9.43;;
23044;SDS011;11690;51.716;23.066;2023-09-12T01:06:17;13.43;;;9.52;;
23044;SDS011;11690;51.716;23.066;2023-09-12T01:08:47;17.60;;;10.23;;
23044;SDS011;11690;51.716;23.066;2023-09-12T01:11:14;14.57;;;9.02;;
23044;SDS011;11690;51.716;23.066;2023-09-12T01:13:41;16.08;;;9.45;;
23044;SDS011;11690;51.716;23.066;2023-09-12T01:16:08;15.32;;;9.50;;
23044;SDS011;11690;51.716;23.066;2023-09-12T01:18:35;16.90;;;9.23;;
23044;SDS011;11690;51.716;23.066;2023-09-12T01:21:14;18.27;;;9.10;;
23044;SDS011;11690;51.716;23.066;2023-09-12T01:27:30;19.83;;;9.00;;
23044;SDS011;11690;51.716;23.066;2023-09-12T01:29:40;18.83;;;10.25;;
23044;SDS011;11690;51.716;23.066;2023-09-12T01:32:10;17.98;;;10.05;;
23044;SDS011;11690;51.716;23.066;2023-09-12T01:34:38;18.73;;;10.23;;
23044;SDS011;11690;51.716;23.066;2023-09-12T01:37:05;16.02;;;10.38;;
23044;SDS011;11690;51.716;23.066;2023-09-12T01:39:32;14.45;;;10.27;;
23044;SDS011;11690;51.716;23.066;2023-09-12T01:41:59;21.30;;;10.35;;
23044;SDS011;11690;51.716;23.066;2023-09-12T01:44:27;16.58;;;10.05;;
23044;SDS011;11690;51.716;23.066;2023-09-12T01:46:55;17.15;;;9.85;;
23044;SDS011;11690;51.716;23.066;2023-09-12T01:49:24;19.15;;;10.05;;
23044;SDS011;11690;51.716;23.066;2023-09-12T01:51:54;19.65;;;10.40;;
23044;SDS011;11690;51.716;23.066;2023-09-12T01:54:21;16.77;;;9.85;;
23044;SDS011;11690;51.716;23.066;2023-09-12T01:56:49;17.58;;;9.80;;
23044;SDS011;11690;51.716;23.066;2023-09-12T01:59:17;19.88;;;11.40;;
23044;SDS011;11690;51.716;23.066;2023-09-12T02:01:45;15.95;;;9.88;;
23044;SDS011;11690;51.716;23.066;2023-09-12T02:04:13;16.23;;;10.10;;
23044;SDS011;11690;51.716;23.066;2023-09-12T02:06:40;14.93;;;9.77;;
23044;SDS011;11690;51.716;23.066;2023-09-12T02:09:07;18.70;;;10.60;;
23044;SDS011;11690;51.716;23.066;2023-09-12T02:11:34;15.73;;;9.82;;
23044;SDS011;11690;51.716;23.066;2023-09-12T02:14:02;22.35;;;10.57;;
23044;SDS011;11690;51.716;23.066;2023-09-12T02:16:30;20.17;;;10.93;;
23044;SDS011;11690;51.716;23.066;2023-09-12T02:18:58;18.08;;;9.77;;
23044;SDS011;11690;51.716;23.066;2023-09-12T02:21:25;24.95;;;10.73;;
23044;SDS011;11690;51.716;23.066;2023-09-12T02:23:53;16.60;;;10.05;;
23044;SDS011;11690;51.716;23.066;2023-09-12T02:26:20;19.40;;;9.77;;
23044;SDS011;11690;51.716;23.066;2023-09-12T02:28:47;15.55;;;9.88;;
23044;SDS011;11690;51.716;23.066;2023-09-12T02:31:14;17.75;;;10.20;;
23044;SDS011;11690;51.716;23.066;2023-09-12T02:33:41;15.13;;;10.43;;
23044;SDS011;11690;51.716;23.066;2023-09-12T02:36:08;18.23;;;10.30;;
23044;SDS011;11690;51.716;23.066;2023-09-12T02:38:36;16.75;;;9.93;;
23044;SDS011;11690;51.716;23.066;2023-09-12T02:41:03;22.05;;;9.85;;
23044;SDS011;11690;51.716;23.066;2023-09-12T02:43:30;14.40;;;9.55;;
23044;SDS011;11690;51.716;23.066;2023-09-12T02:45:59;20.50;;;10.10;;
23044;SDS011;11690;51.716;23.066;2023-09-12T02:48:26;19.70;;;10.02;;
23044;SDS011;11690;51.716;23.066;2023-09-12T02:50:53;15.63;;;9.52;;
23044;SDS011;11690;51.716;23.066;2023-09-12T02:53:21;14.45;;;9.30;;
23044;SDS011;11690;51.716;23.066;2023-09-12T02:55:48;16.10;;;9.52;;
23044;SDS011;11690;51.716;23.066;2023-09-12T02:58:15;13.85;;;9.45;;
23044;SDS011;11690;51.716;23.066;2023-09-12T03:00:42;13.23;;;9.82;;
23044;SDS011;11690;51.716;23.066;2023-09-12T03:03:10;16.83;;;10.45;;
23044;SDS011;11690;51.716;23.066;2023-09-12T03:05:38;19.73;;;10.32;;
23044;SDS011;11690;51.716;23.066;2023-09-12T03:08:05;17.50;;;9.48;;
23044;SDS011;11690;51.716;23.066;2023-09-12T03:10:32;19.13;;;10.65;;
23044;SDS011;11690;51.716;23.066;2023-09-12T03:13:00;18.10;;;10.57;;
23044;SDS011;11690;51.716;23.066;2023-09-12T03:15:27;21.33;;;11.15;;
23044;SDS011;11690;51.716;23.066;2023-09-12T03:17:54;18.48;;;11.38;;
23044;SDS011;11690;51.716;23.066;2023-09-12T03:20:21;18.00;;;11.15;;
23044;SDS011;11690;51.716;23.066;2023-09-12T03:22:48;17.77;;;10.77;;
23044;SDS011;11690;51.716;23.066;2023-09-12T03:25:15;17.02;;;10.30;;
23044;SDS011;11690;51.716;23.066;2023-09-12T03:27:43;18.58;;;11.52;;
23044;SDS011;11690;51.716;23.066;2023-09-12T03:30:10;23.58;;;11.20;;
23044;SDS011;11690;51.716;23.066;2023-09-12T03:32:38;18.05;;;10.50;;
23044;SDS011;11690;51.716;23.066;2023-09-12T03:35:05;25.00;;;10.77;;
23044;SDS011;11690;51.716;23.066;2023-09-12T03:37:32;16.65;;;10.93;;
23044;SDS011;11690;51.716;23.066;2023-09-12T03:40:00;18.77;;;11.43;;
23044;SDS011;11690;51.716;23.066;2023-09-12T03:42:27;16.83;;;10.98;;
23044;SDS011;11690;51.716;23.066;2023-09-12T03:45:07;14.93;;;10.55;;
23044;SDS011;11690;51.716;23.066;2023-09-12T03:47:35;25.67;;;11.07;;
23044;SDS011;11690;51.716;23.066;2023-09-12T03:50:02;18.25;;;10.68;;
23044;SDS011;11690;51.716;23.066;2023-09-12T03:52:31;20.17;;;11.52;;
23044;SDS011;11690;51.716;23.066;2023-09-12T03:54:58;16.73;;;11.32;;
23044;SDS011;11690;51.716;23.066;2023-09-12T03:57:28;18.08;;;11.63;;
23044;SDS011;11690;51.716;23.066;2023-09-12T03:59:55;18.30;;;11.02;;
23044;SDS011;11690;51.716;23.066;2023-09-12T04:02:23;23.15;;;11.70;;
23044;SDS011;11690;51.716;23.066;2023-09-12T04:04:50;20.25;;;11.40;;
23044;SDS011;11690;51.716;23.066;2023-09-12T04:07:19;18.50;;;11.20;;
23044;SDS011;11690;51.716;23.066;2023-09-12T04:09:46;17.80;;;12.13;;
23044;SDS011;11690;51.716;23.066;2023-09-12T04:12:13;19.10;;;11.48;;
23044;SDS011;11690;51.716;23.066;2023-09-12T04:14:40;17.73;;;12.00;;
23044;SDS011;11690;51.716;23.066;2023-09-12T04:17:07;18.73;;;11.38;;
23044;SDS011;11690;51.716;23.066;2023-09-12T04:19:35;19.20;;;11.23;;
23044;SDS011;11690;51.716;23.066;2023-09-12T04:22:03;22.45;;;12.48;;
23044;SDS011;11690;51.716;23.066;2023-09-12T04:24:31;20.63;;;12.40;;
23044;SDS011;11690;51.716;23.066;2023-09-12T04:26:58;20.83;;;12.45;;
23044;SDS011;11690;51.716;23.066;2023-09-12T04:29:25;16.60;;;12.15;;
23044;SDS011;11690;51.716;23.066;2023-09-12T04:31:54;17.88;;;11.95;;
23044;SDS011;11690;51.716;23.066;2023-09-12T04:34:26;19.15;;;12.63;;
23044;SDS011;11690;51.716;23.066;2023-09-12T04:36:53;16.73;;;12.25;;
23044;SDS011;11690;51.716;23.066;2023-09-12T04:39:21;18.75;;;12.23;;
23044;SDS011;11690;51.716;23.066;2023-09-12T04:41:49;22.02;;;12.52;;
23044;SDS011;11690;51.716;23.066;2023-09-12T04:44:16;19.42;;;11.80;;
23044;SDS011;11690;51.716;23.066;2023-09-12T04:46:43;20.40;;;12.02;;
23044;SDS011;11690;51.716;23.066;2023-09-12T04:49:10;20.98;;;13.38;;
23044;SDS011;11690;51.716;23.066;2023-09-12T04:51:37;19.88;;;12.63;;
23044;SDS011;11690;51.716;23.066;2023-09-12T04:54:04;20.27;;;12.35;;
23044;SDS011;11690;51.716;23.066;2023-09-12T04:56:32;22.10;;;13.63;;
23044;SDS011;11690;51.716;23.066;2023-09-12T04:58:59;25.17;;;12.68;;
23044;SDS011;11690;51.716;23.066;2023-09-12T05:01:27;17.40;;;12.20;;
23044;SDS011;11690;51.716;23.066;2023-09-12T05:03:54;20.45;;;12.82;;
23044;SDS011;11690;51.716;23.066;2023-09-12T05:06:21;26.33;;;12.48;;
23044;SDS011;11690;51.716;23.066;2023-09-12T05:08:48;18.58;;;12.52;;
23044;SDS011;11690;51.716;23.066;2023-09-12T05:11:17;26.15;;;11.95;;
23044;SDS011;11690;51.716;23.066;2023-09-12T05:13:44;16.63;;;12.02;;
23044;SDS011;11690;51.716;23.066;2023-09-12T05:16:11;20.80;;;12.15;;
23044;SDS011;11690;51.716;23.066;2023-09-12T05:18:38;20.10;;;12.60;;
23044;SDS011;11690;51.716;23.066;2023-09-12T05:21:06;22.88;;;12.77;;
23044;SDS011;11690;51.716;23.066;2023-09-12T05:23:33;19.20;;;12.38;;
23044;SDS011;11690;51.716;23.066;2023-09-12T05:26:00;21.35;;;12.00;;
23044;SDS011;11690;51.716;23.066;2023-09-12T05:28:28;25.70;;;12.85;;
23044;SDS011;11690;51.716;23.066;2023-09-12T05:30:55;25.08;;;12.35;;
23044;SDS011;11690;51.716;23.066;2023-09-12T05:33:22;20.08;;;13.27;;
23044;SDS011;11690;51.716;23.066;2023-09-12T05:35:50;19.27;;;12.75;;
23044;SDS011;11690;51.716;23.066;2023-09-12T05:38:17;20.05;;;11.85;;
23044;SDS011;11690;51.716;23.066;2023-09-12T05:40:44;20.00;;;11.68;;
23044;SDS011;11690;51.716;23.066;2023-09-12T05:43:11;21.00;;;12.93;;
23044;SDS011;11690;51.716;23.066;2023-09-12T05:45:38;24.80;;;11.50;;
23044;SDS011;11690;51.716;23.066;2023-09-12T05:48:06;22.25;;;12.65;;
23044;SDS011;11690;51.716;23.066;2023-09-12T05:50:35;20.05;;;12.95;;
23044;SDS011;11690;51.716;23.066;2023-09-12T05:53:04;23.70;;;13.27;;
23044;SDS011;11690;51.716;23.066;2023-09-12T05:55:31;22.88;;;12.95;;
23044;SDS011;11690;51.716;23.066;2023-09-12T05:57:58;21.38;;;13.52;;
23044;SDS011;11690;51.716;23.066;2023-09-12T06:00:25;20.40;;;12.98;;
23044;SDS011;11690;51.716;23.066;2023-09-12T06:02:52;23.30;;;12.80;;
23044;SDS011;11690;51.716;23.066;2023-09-12T06:05:20;17.75;;;11.68;;
23044;SDS011;11690;51.716;23.066;2023-09-12T06:07:47;22.63;;;13.80;;
23044;SDS011;11690;51.716;23.066;2023-09-12T06:10:14;20.95;;;11.88;;
23044;SDS011;11690;51.716;23.066;2023-09-12T06:12:41;20.65;;;11.30;;
23044;SDS011;11690;51.716;23.066;2023-09-12T06:15:09;25.58;;;12.27;;
23044;SDS011;11690;51.716;23.066;2023-09-12T06:17:36;21.80;;;12.10;;
23044;SDS011;11690;51.716;23.066;2023-09-12T06:20:04;19.70;;;11.88;;
23044;SDS011;11690;51.716;23.066;2023-09-12T06:22:34;24.95;;;12.40;;
23044;SDS011;11690;51.716;23.066;2023-09-12T06:25:02;19.55;;;11.35;;
23044;SDS011;11690;51.716;23.066;2023-09-12T06:27:30;19.88;;;12.15;;
23044;SDS011;11690;51.716;23.066;2023-09-12T06:29:58;20.50;;;12.18;;
23044;SDS011;11690;51.716;23.066;2023-09-12T06:32:25;19.15;;;11.52;;
23044;SDS011;11690;51.716;23.066;2023-09-12T06:34:53;21.13;;;12.45;;
23044;SDS011;11690;51.716;23.066;2023-09-12T06:37:20;21.92;;;11.75;;
23044;SDS011;11690;51.716;23.066;2023-09-12T06:39:50;19.15;;;12.05;;
23044;SDS011;11690;51.716;23.066;2023-09-12T06:42:18;18.05;;;11.38;;
23044;SDS011;11690;51.716;23.066;2023-09-12T06:44:45;22.70;;;11.35;;
23044;SDS011;11690;51.716;23.066;2023-09-12T06:47:12;19.63;;;10.75;;
23044;SDS011;11690;51.716;23.066;2023-09-12T06:49:40;22.92;;;12.60;;
23044;SDS011;11690;51.716;23.066;2023-09-12T06:52:07;18.52;;;12.32;;
23044;SDS011;11690;51.716;23.066;2023-09-12T06:54:36;18.58;;;11.65;;
23044;SDS011;11690;51.716;23.066;2023-09-12T06:57:03;17.48;;;12.00;;
23044;SDS011;11690;51.716;23.066;2023-09-12T06:59:31;19.90;;;11.45;;
23044;SDS011;11690;51.716;23.066;2023-09-12T07:01:58;18.52;;;10.73;;
23044;SDS011;11690;51.716;23.066;2023-09-12T07:04:25;19.55;;;11.80;;
23044;SDS011;11690;51.716;23.066;2023-09-12T07:06:53;19.17;;;11.88;;
23044;SDS011;11690;51.716;23.066;2023-09-12T07:09:21;18.35;;;11.48;;
23044;SDS011;11690;51.716;23.066;2023-09-12T07:11:48;20.42;;;11.38;;
23044;SDS011;11690;51.716;23.066;2023-09-12T07:14:15;24.50;;;11.57;;
23044;SDS011;11690;51.716;23.066;2023-09-12T07:16:42;20.63;;;10.35;;
23044;SDS011;11690;51.716;23.066;2023-09-12T07:19:09;17.55;;;10.93;;
23044;SDS011;11690;51.716;23.066;2023-09-12T07:21:37;19.70;;;11.07;;
23044;SDS011;11690;51.716;23.066;2023-09-12T07:24:04;15.98;;;9.98;;
23044;SDS011;11690;51.716;23.066;2023-09-12T07:26:32;17.50;;;10.18;;
23044;SDS011;11690;51.716;23.066;2023-09-12T07:28:59;20.48;;;10.20;;
23044;SDS011;11690;51.716;23.066;2023-09-12T07:31:29;19.83;;;10.15;;
23044;SDS011;11690;51.716;23.066;2023-09-12T07:33:56;19.27;;;10.60;;
23044;SDS011;11690;51.716;23.066;2023-09-12T07:36:23;21.10;;;10.32;;
23044;SDS011;11690;51.716;23.066;2023-09-12T07:38:51;18.75;;;9.80;;
23044;SDS011;11690;51.716;23.066;2023-09-12T07:41:18;16.77;;;10.13;;
23044;SDS011;11690;51.716;23.066;2023-09-12T07:43:46;17.38;;;9.13;;
23044;SDS011;11690;51.716;23.066;2023-09-12T07:46:13;15.32;;;9.68;;
23044;SDS011;11690;51.716;23.066;2023-09-12T07:48:40;16.42;;;9.90;;
23044;SDS011;11690;51.716;23.066;2023-09-12T07:51:14;16.88;;;9.38;;
23044;SDS011;11690;51.716;23.066;2023-09-12T07:53:42;13.52;;;9.18;;
23044;SDS011;11690;51.716;23.066;2023-09-12T07:56:10;19.00;;;10.10;;
23044;SDS011;11690;51.716;23.066;2023-09-12T07:58:38;17.13;;;9.35;;
23044;SDS011;11690;51.716;23.066;2023-09-12T08:01:06;15.68;;;9.40;;
23044;SDS011;11690;51.716;23.066;2023-09-12T08:03:37;15.05;;;9.35;;
23044;SDS011;11690;51.716;23.066;2023-09-12T08:06:06;14.95;;;8.70;;
23044;SDS011;11690;51.716;23.066;2023-09-12T08:08:34;12.70;;;8.43;;
23044;SDS011;11690;51.716;23.066;2023-09-12T08:11:01;19.45;;;9.65;;
23044;SDS011;11690;51.716;23.066;2023-09-12T08:13:29;15.43;;;9.10;;
23044;SDS011;11690;51.716;23.066;2023-09-12T08:15:57;16.30;;;9.18;;
23044;SDS011;11690;51.716;23.066;2023-09-12T08:18:26;17.85;;;9.38;;
23044;SDS011;11690;51.716;23.066;2023-09-12T08:20:54;16.85;;;9.10;;
23044;SDS011;11690;51.716;23.066;2023-09-12T08:23:22;12.82;;;8.70;;
23044;SDS011;11690;51.716;23.066;2023-09-12T08:25:49;22.40;;;8.93;;
23044;SDS011;11690;51.716;23.066;2023-09-12T08:28:16;16.38;;;7.88;;
23044;SDS011;11690;51.716;23.066;2023-09-12T08:30:44;13.85;;;7.82;;
23044;SDS011;11690;51.716;23.066;2023-09-12T08:33:13;21.60;;;7.95;;
23044;SDS011;11690;51.716;23.066;2023-09-12T08:35:40;15.32;;;7.85;;
23044;SDS011;11690;51.716;23.066;2023-09-12T08:38:07;11.23;;;7.80;;
23044;SDS011;11690;51.716;23.066;2023-09-12T08:40:35;11.07;;;7.45;;
23044;SDS011;11690;51.716;23.066;2023-09-12T08:43:02;12.73;;;8.02;;
23044;SDS011;11690;51.716;23.066;2023-09-12T08:45:33;18.88;;;8.07;;
23044;SDS011;11690;51.716;23.066;2023-09-12T08:48:03;13.65;;;7.05;;
23044;SDS011;11690;51.716;23.066;2023-09-12T08:50:30;14.13;;;7.10;;
23044;SDS011;11690;51.716;23.066;2023-09-12T08:53:00;10.88;;;6.90;;
23044;SDS011;11690;51.716;23.066;2023-09-12T08:55:35;11.55;;;7.20;;
23044;SDS011;11690;51.716;23.066;2023-09-12T08:58:03;13.35;;;7.03;;
23044;SDS011;11690;51.716;23.066;2023-09-12T09:00:31;15.52;;;7.85;;
23044;SDS011;11690;51.716;23.066;2023-09-12T09:02:59;11.70;;;7.05;;
23044;SDS011;11690;51.716;23.066;2023-09-12T09:05:27;11.65;;;6.70;;
23044;SDS011;11690;51.716;23.066;2023-09-12T09:07:56;13.88;;;7.28;;
23044;SDS011;11690;51.716;23.066;2023-09-12T09:10:24;11.80;;;7.38;;
23044;SDS011;11690;51.716;23.066;2023-09-12T09:13:12;12.77;;;7.13;;
23044;SDS011;11690;51.716;23.066;2023-09-12T09:15:39;12.82;;;7.22;;
23044;SDS011;11690;51.716;23.066;2023-09-12T09:18:09;9.10;;;6.38;;
23044;SDS011;11690;51.716;23.066;2023-09-12T09:20:39;11.50;;;6.50;;
23044;SDS011;11690;51.716;23.066;2023-09-12T09:23:09;12.50;;;6.50;;
23044;SDS011;11690;51.716;23.066;2023-09-12T09:25:41;10.88;;;6.20;;
23044;SDS011;11690;51.716;23.066;2023-09-12T09:28:16;10.75;;;6.10;;
23044;SDS011;11690;51.716;23.066;2023-09-12T09:30:48;12.15;;;6.72;;
23044;SDS011;11690;51.716;23.066;2023-09-12T09:33:18;14.30;;;6.22;;
23044;SDS011;11690;51.716;23.066;2023-09-12T09:35:46;12.88;;;5.65;;
23044;SDS011;11690;51.716;23.066;2023-09-12T09:38:14;13.95;;;6.32;;
23044;SDS011;11690;51.716;23.066;2023-09-12T09:40:43;9.43;;;6.63;;
23044;SDS011;11690;51.716;23.066;2023-09-12T09:43:11;8.73;;;5.97;;
23044;SDS011;11690;51.716;23.066;2023-09-12T09:45:44;13.38;;;6.22;;
23044;SDS011;11690;51.716;23.066;2023-09-12T09:48:20;11.70;;;6.30;;
23044;SDS011;11690;51.716;23.066;2023-09-12T09:50:48;10.13;;;6.13;;
23044;SDS011;11690;51.716;23.066;2023-09-12T09:53:15;12.25;;;6.40;;
23044;SDS011;11690;51.716;23.066;2023-09-12T09:55:43;10.20;;;6.38;;
23044;SDS011;11690;51.716;23.066;2023-09-12T09:58:14;10.32;;;6.85;;
23044;SDS011;11690;51.716;23.066;2023-09-12T10:00:43;15.30;;;6.32;;
23044;SDS011;11690;51.716;23.066;2023-09-12T10:03:12;12.27;;;6.07;;
23044;SDS011;11690;51.716;23.066;2023-09-12T10:05:40;12.60;;;6.75;;
23044;SDS011;11690;51.716;23.066;2023-09-12T10:08:08;9.85;;;6.53;;
23044;SDS011;11690;51.716;23.066;2023-09-12T10:10:38;10.98;;;6.72;;
23044;SDS011;11690;51.716;23.066;2023-09-12T10:13:05;12.82;;;6.72;;
23044;SDS011;11690;51.716;23.066;2023-09-12T10:15:32;14.73;;;6.72;;
23044;SDS011;11690;51.716;23.066;2023-09-12T10:18:02;11.98;;;6.78;;
23044;SDS011;11690;51.716;23.066;2023-09-12T10:20:37;10.32;;;7.05;;
23044;SDS011;11690;51.716;23.066;2023-09-12T10:23:19;10.40;;;6.53;;
23044;SDS011;11690;51.716;23.066;2023-09-12T10:25:48;16.02;;;7.35;;
23044;SDS011;11690;51.716;23.066;2023-09-12T10:28:16;8.75;;;6.38;;
23044;SDS011;11690;51.716;23.066;2023-09-12T10:30:44;12.38;;;7.22;;
23044;SDS011;11690;51.716;23.066;2023-09-12T10:33:12;10.68;;;6.47;;
23044;SDS011;11690;51.716;23.066;2023-09-12T10:35:40;10.38;;;7.03;;
23044;SDS011;11690;51.716;23.066;2023-09-12T10:38:07;10.30;;;7.20;;
23044;SDS011;11690;51.716;23.066;2023-09-12T10:40:36;10.77;;;7.30;;
23044;SDS011;11690;51.716;23.066;2023-09-12T10:43:09;11.57;;;6.10;;
23044;SDS011;11690;51.716;23.066;2023-09-12T10:45:37;10.13;;;6.57;;
23044;SDS011;11690;51.716;23.066;2023-09-12T10:48:05;8.00;;;6.22;;
23044;SDS011;11690;51.716;23.066;2023-09-12T10:50:32;10.95;;;6.30;;
23044;SDS011;11690;51.716;23.066;2023-09-12T10:53:10;8.95;;;6.53;;
23044;SDS011;11690;51.716;23.066;2023-09-12T10:55:37;12.73;;;6.32;;
23044;SDS011;11690;51.716;23.066;2023-09-12T10:58:05;11.48;;;6.90;;
23044;SDS011;11690;51.716;23.066;2023-09-12T11:00:34;10.07;;;6.70;;
23044;SDS011;11690;51.716;23.066;2023-09-12T11:05:54;10.75;;;6.63;;
23044;SDS011;11690;51.716;23.066;2023-09-12T11:08:23;11.15;;;6.90;;
23044;SDS011;11690;51.716;23.066;2023-09-12T11:14:02;12.13;;;6.97;;
23044;SDS011;11690;51.716;23.066;2023-09-12T11:16:30;10.40;;;7.40;;
23044;SDS011;11690;51.716;23.066;2023-09-12T11:21:50;13.40;;;7.13;;
23044;SDS011;11690;51.716;23.066;2023-09-12T11:24:19;14.88;;;7.22;;
23044;SDS011;11690;51.716;23.066;2023-09-12T11:29:35;9.48;;;6.45;;
23044;SDS011;11690;51.716;23.066;2023-09-12T11:32:04;10.90;;;6.93;;
23044;SDS011;11690;51.716;23.066;2023-09-12T11:34:40;11.63;;;7.28;;
23044;SDS011;11690;51.716;23.066;2023-09-12T11:37:08;14.65;;;6.70;;
23044;SDS011;11690;51.716;23.066;2023-09-12T11:39:36;10.23;;;6.78;;
23044;SDS011;11690;51.716;23.066;2023-09-12T11:42:04;12.48;;;6.85;;
23044;SDS011;11690;51.716;23.066;2023-09-12T11:44:31;8.95;;;6.25;;
23044;SDS011;11690;51.716;23.066;2023-09-12T11:46:59;11.18;;;6.82;;
23044;SDS011;11690;51.716;23.066;2023-09-12T11:49:36;11.57;;;7.38;;
23044;SDS011;11690;51.716;23.066;2023-09-12T11:52:07;10.40;;;7.00;;
23044;SDS011;11690;51.716;23.066;2023-09-12T11:54:36;9.38;;;6.70;;
23044;SDS011;11690;51.716;23.066;2023-09-12T11:57:04;13.65;;;7.00;;
23044;SDS011;11690;51.716;23.066;2023-09-12T11:59:31;10.45;;;7.18;;
23044;SDS011;11690;51.716;23.066;2023-09-12T12:01:58;16.73;;;7.32;;
23044;SDS011;11690;51.716;23.066;2023-09-12T12:04:26;10.13;;;7.28;;
23044;SDS011;11690;51.716;23.066;2023-09-12T12:06:53;13.32;;;6.68;;
23044;SDS011;11690;51.716;23.066;2023-09-12T12:09:21;10.23;;;7.13;;
23044;SDS011;11690;51.716;23.066;2023-09-12T12:11:48;13.02;;;6.80;;
23044;SDS011;11690;51.716;23.066;2023-09-12T12:14:16;12.40;;;6.95;;
23044;SDS011;11690;51.716;23.066;2023-09-12T12:16:44;12.38;;;7.60;;
23044;SDS011;11690;51.716;23.066;2023-09-12T12:19:13;9.30;;;6.30;;
23044;SDS011;11690;51.716;23.066;2023-09-12T12:21:41;9.77;;;6.78;;
23044;SDS011;11690;51.716;23.066;2023-09-12T12:24:13;10.50;;;7.15;;
23044;SDS011;11690;51.716;23.066;2023-09-12T12:26:42;11.65;;;6.95;;
23044;SDS011;11690;51.716;23.066;2023-09-12T12:29:12;10.80;;;7.35;;
23044;SDS011;11690;51.716;23.066;2023-09-12T12:31:40;10.70;;;7.68;;
23044;SDS011;11690;51.716;23.066;2023-09-12T12:34:07;29.10;;;7.35;;
23044;SDS011;11690;51.716;23.066;2023-09-12T12:36:54;10.88;;;7.70;;
23044;SDS011;11690;51.716;23.066;2023-09-12T12:39:24;9.88;;;6.75;;
23044;SDS011;11690;51.716;23.066;2023-09-12T12:41:52;9.32;;;6.60;;
23044;SDS011;11690;51.716;23.066;2023-09-12T12:44:21;10.70;;;7.07;;
23044;SDS011;11690;51.716;23.066;2023-09-12T12:46:52;12.23;;;7.00;;
23044;SDS011;11690;51.716;23.066;2023-09-12T12:49:20;9.50;;;6.97;;
23044;SDS011;11690;51.716;23.066;2023-09-12T12:51:49;12.18;;;7.85;;
23044;SDS011;11690;51.716;23.066;2023-09-12T12:54:21;9.10;;;6.53;;
23044;SDS011;11690;51.716;23.066;2023-09-12T12:56:49;12.50;;;7.10;;
23044;SDS011;11690;51.716;23.066;2023-09-12T12:59:16;10.75;;;7.18;;
23044;SDS011;11690;51.716;23.066;2023-09-12T13:01:43;11.05;;;7.32;;
23044;SDS011;11690;51.716;23.066;2023-09-12T13:04:11;9.82;;;6.63;;
23044;SDS011;11690;51.716;23.066;2023-09-12T13:06:38;13.68;;;6.75;;
23044;SDS011;11690;51.716;23.066;2023-09-12T13:09:07;12.93;;;7.00;;
23044;SDS011;11690;51.716;23.066;2023-09-12T13:11:35;16.45;;;7.70;;
23044;SDS011;11690;51.716;23.066;2023-09-12T13:14:03;11.85;;;6.93;;
23044;SDS011;11690;51.716;23.066;2023-09-12T13:16:37;12.35;;;7.00;;
23044;SDS011;11690;51.716;23.066;2023-09-12T13:19:06;11.30;;;6.88;;
23044;SDS011;11690;51.716;23.066;2023-09-12T13:21:34;14.43;;;7.47;;
23044;SDS011;11690;51.716;23.066;2023-09-12T13:24:02;13.73;;;6.93;;
23044;SDS011;11690;51.716;23.066;2023-09-12T13:26:29;10.10;;;6.82;;
23044;SDS011;11690;51.716;23.066;2023-09-12T13:28:58;9.80;;;6.88;;
23044;SDS011;11690;51.716;23.066;2023-09-12T13:31:25;10.85;;;6.90;;
23044;SDS011;11690;51.716;23.066;2023-09-12T13:33:52;9.55;;;6.80;;
23044;SDS011;11690;51.716;23.066;2023-09-12T13:36:19;11.70;;;6.72;;
23044;SDS011;11690;51.716;23.066;2023-09-12T13:38:47;9.73;;;6.97;;
23044;SDS011;11690;51.716;23.066;2023-09-12T13:41:15;13.13;;;7.55;;
23044;SDS011;11690;51.716;23.066;2023-09-12T13:43:42;14.27;;;7.32;;
23044;SDS011;11690;51.716;23.066;2023-09-12T13:46:12;8.88;;;6.60;;
23044;SDS011;11690;51.716;23.066;2023-09-12T13:48:40;10.75;;;7.15;;
23044;SDS011;11690;51.716;23.066;2023-09-12T13:51:07;14.93;;;7.03;;
23044;SDS011;11690;51.716;23.066;2023-09-12T13:53:34;11.32;;;7.18;;
23044;SDS011;11690;51.716;23.066;2023-09-12T13:56:01;13.55;;;7.13;;
23044;SDS011;11690;51.716;23.066;2023-09-12T13:58:49;9.98;;;7.30;;
23044;SDS011;11690;51.716;23.066;2023-09-12T14:01:17;7.75;;;6.45;;
23044;SDS011;11690;51.716;23.066;2023-09-12T14:04:00;11.45;;;7.22;;
23044;SDS011;11690;51.716;23.066;2023-09-12T14:06:29;10.18;;;7.07;;
23044;SDS011;11690;51.716;23.066;2023-09-12T14:08:56;12.45;;;7.65;;
23044;SDS011;11690;51.716;23.066;2023-09-12T14:11:23;15.20;;;7.15;;
23044;SDS011;11690;51.716;23.066;2023-09-12T14:14:01;12.07;;;6.88;;
23044;SDS011;11690;51.716;23.066;2023-09-12T14:16:42;11.23;;;7.30;;
23044;SDS011;11690;51.716;23.066;2023-09-12T14:19:14;11.85;;;7.00;;
23044;SDS011;11690;51.716;23.066;2023-09-12T14:21:42;13.27;;;7.45;;
23044;SDS011;11690;51.716;23.066;2023-09-12T14:24:12;12.05;;;7.45;;
23044;SDS011;11690;51.716;23.066;2023-09-12T14:26:39;10.93;;;7.25;;
23044;SDS011;11690;51.716;23.066;2023-09-12T14:29:08;14.07;;;7.50;;
23044;SDS011;11690;51.716;23.066;2023-09-12T14:31:35;13.38;;;8.00;;
23044;SDS011;11690;51.716;23.066;2023-09-12T14:34:04;8.88;;;7.07;;
23044;SDS011;11690;51.716;23.066;2023-09-12T14:36:33;14.75;;;7.13;;
23044;SDS011;11690;51.716;23.066;2023-09-12T14:39:00;10.95;;;7.50;;